FAB2019 SBCO-SBBI
Flight info
| Callsign | FAB2019 |
|---|---|
| Flight time | 1h 15m |
| Altitude | FL170 |
| Route | SBCO DAISE MONA SBBI |
| Aircraft | E120/M-VD/A |
Departure
| Time | 2026-04-15 19:29 |
|---|---|
| Airport | Canoas Air Force Base (SBCO) |
Arrival
| Time | 2026-04-15 20:44 |
|---|---|
| Airport | Bacacheri Airport (SBBI) |
| Time | Latitude | Longitude | Altitude | Speed | Heading |
|---|---|---|---|---|---|
| 2026-04-15 19:20 | -29.94188 | -51.14822 | 32 ft | 0 kts | 341° |
| 2026-04-15 19:25 | -29.94191 | -51.14945 | 32 ft | 26 kts | 261° |
| 2026-04-15 19:25 | -29.94174 | -51.15091 | 32 ft | 14 kts | 290° |
| 2026-04-15 19:25 | -29.94092 | -51.15352 | 32 ft | 45 kts | 290° |
| 2026-04-15 19:25 | -29.94013 | -51.15608 | 32 ft | 25 kts | 290° |
| 2026-04-15 19:26 | -29.94034 | -51.15704 | 32 ft | 12 kts | 202° |
| 2026-04-15 19:26 | -29.94088 | -51.15727 | 32 ft | 0 kts | 199° |
| 2026-04-15 19:26 | -29.94106 | -51.15734 | 32 ft | 8 kts | 199° |
| 2026-04-15 19:27 | -29.94178 | -51.15735 | 32 ft | 12 kts | 126° |
| 2026-04-15 19:27 | -29.94189 | -51.15708 | 32 ft | 0 kts | 108° |
| 2026-04-15 19:28 | -29.94200 | -51.15670 | 32 ft | 31 kts | 108° |
| 2026-04-15 19:28 | -29.94393 | -51.15024 | 32 ft | 124 kts | 110° |
| 2026-04-15 19:28 | -29.94727 | -51.13963 | 62 ft | 151 kts | 110° |
| 2026-04-15 19:29 | -29.95088 | -51.12901 | 610 ft | 138 kts | 112° |
| 2026-04-15 19:29 | -29.95503 | -51.11747 | 929 ft | 173 kts | 111° |
| 2026-04-15 19:29 | -29.95986 | -51.10366 | 1220 ft | 199 kts | 111° |
| 2026-04-15 19:29 | -29.96528 | -51.08811 | 1491 ft | 219 kts | 111° |
| 2026-04-15 19:30 | -29.97110 | -51.07130 | 1753 ft | 233 kts | 111° |
| 2026-04-15 19:30 | -29.97694 | -51.05353 | 2004 ft | 242 kts | 106° |
| 2026-04-15 19:30 | -29.97818 | -51.03417 | 2251 ft | 246 kts | 82° |
| 2026-04-15 19:30 | -29.97255 | -51.01576 | 2510 ft | 246 kts | 58° |
| 2026-04-15 19:31 | -29.96105 | -51.00165 | 2846 ft | 240 kts | 33° |
| 2026-04-15 19:31 | -29.94596 | -50.99429 | 3172 ft | 236 kts | 8° |
| 2026-04-15 19:31 | -29.92975 | -50.99234 | 3447 ft | 236 kts | 0° |
| 2026-04-15 19:31 | -29.91343 | -50.98942 | 3706 ft | 240 kts | 5° |
| 2026-04-15 19:32 | -29.89707 | -50.98543 | 3961 ft | 242 kts | 7° |
| 2026-04-15 19:32 | -29.88064 | -50.98103 | 4212 ft | 244 kts | 8° |
| 2026-04-15 19:32 | -29.86409 | -50.97651 | 4464 ft | 246 kts | 8° |
| 2026-04-15 19:32 | -29.84740 | -50.97203 | 4713 ft | 248 kts | 8° |
| 2026-04-15 19:33 | -29.83056 | -50.96761 | 4963 ft | 250 kts | 7° |
| 2026-04-15 19:33 | -29.81356 | -50.96325 | 5213 ft | 252 kts | 7° |
| 2026-04-15 19:33 | -29.79641 | -50.95894 | 5465 ft | 254 kts | 7° |
| 2026-04-15 19:33 | -29.77911 | -50.95467 | 5716 ft | 256 kts | 7° |
| 2026-04-15 19:34 | -29.76167 | -50.95039 | 5967 ft | 258 kts | 7° |
| 2026-04-15 19:34 | -29.74412 | -50.94614 | 6218 ft | 259 kts | 7° |
| 2026-04-15 19:34 | -29.72652 | -50.94189 | 6469 ft | 259 kts | 7° |
| 2026-04-15 19:34 | -29.70888 | -50.93764 | 6718 ft | 260 kts | 7° |
| 2026-04-15 19:35 | -29.69122 | -50.93339 | 6968 ft | 260 kts | 7° |
| 2026-04-15 19:35 | -29.67351 | -50.92913 | 7218 ft | 260 kts | 7° |
| 2026-04-15 19:35 | -29.65579 | -50.92487 | 7468 ft | 261 kts | 7° |
| 2026-04-15 19:35 | -29.63804 | -50.92061 | 7718 ft | 261 kts | 7° |
| 2026-04-15 19:36 | -29.62025 | -50.91635 | 7968 ft | 262 kts | 7° |
| 2026-04-15 19:36 | -29.60244 | -50.91208 | 8218 ft | 262 kts | 7° |
| 2026-04-15 19:36 | -29.58457 | -50.90781 | 8468 ft | 263 kts | 7° |
| 2026-04-15 19:36 | -29.56668 | -50.90353 | 8718 ft | 264 kts | 7° |
| 2026-04-15 19:37 | -29.54874 | -50.89923 | 8968 ft | 265 kts | 7° |
| 2026-04-15 19:37 | -29.53071 | -50.89492 | 9217 ft | 266 kts | 7° |
| 2026-04-15 19:37 | -29.51258 | -50.89059 | 9467 ft | 267 kts | 7° |
| 2026-04-15 19:37 | -29.49437 | -50.88624 | 9717 ft | 269 kts | 7° |
| 2026-04-15 19:38 | -29.47606 | -50.88188 | 9968 ft | 270 kts | 7° |
| 2026-04-15 19:38 | -29.45768 | -50.87750 | 10218 ft | 271 kts | 7° |
| 2026-04-15 19:38 | -29.43920 | -50.87310 | 10468 ft | 272 kts | 7° |
| 2026-04-15 19:38 | -29.42068 | -50.86869 | 10718 ft | 273 kts | 7° |
| 2026-04-15 19:39 | -29.40209 | -50.86427 | 10968 ft | 274 kts | 7° |
| 2026-04-15 19:39 | -29.38344 | -50.85983 | 11218 ft | 275 kts | 7° |
| 2026-04-15 19:39 | -29.36469 | -50.85536 | 11467 ft | 277 kts | 7° |
| 2026-04-15 19:39 | -29.34584 | -50.85088 | 11718 ft | 278 kts | 7° |
| 2026-04-15 19:40 | -29.32688 | -50.84637 | 11968 ft | 280 kts | 7° |
| 2026-04-15 19:40 | -29.30783 | -50.84185 | 12218 ft | 281 kts | 7° |
| 2026-04-15 19:40 | -29.28873 | -50.83732 | 12468 ft | 281 kts | 7° |
| 2026-04-15 19:40 | -29.26961 | -50.83278 | 12718 ft | 281 kts | 7° |
| 2026-04-15 19:41 | -29.25047 | -50.82823 | 12968 ft | 282 kts | 7° |
| 2026-04-15 19:41 | -29.23133 | -50.82369 | 13218 ft | 282 kts | 7° |
| 2026-04-15 19:41 | -29.21216 | -50.81914 | 13468 ft | 282 kts | 7° |
| 2026-04-15 19:41 | -29.19297 | -50.81458 | 13718 ft | 282 kts | 7° |
| 2026-04-15 19:42 | -29.17375 | -50.81002 | 13968 ft | 283 kts | 7° |
| 2026-04-15 19:42 | -29.15450 | -50.80546 | 14218 ft | 283 kts | 7° |
| 2026-04-15 19:42 | -29.13521 | -50.80088 | 14468 ft | 284 kts | 7° |
| 2026-04-15 19:42 | -29.11586 | -50.79630 | 14718 ft | 285 kts | 7° |
| 2026-04-15 19:43 | -29.09650 | -50.79171 | 14968 ft | 285 kts | 7° |
| 2026-04-15 19:43 | -29.07708 | -50.78700 | 15217 ft | 287 kts | 9° |
| 2026-04-15 19:43 | -29.05796 | -50.78026 | 15468 ft | 289 kts | 15° |
| 2026-04-15 19:43 | -29.03921 | -50.77187 | 15718 ft | 291 kts | 18° |
| 2026-04-15 19:44 | -29.02066 | -50.76274 | 15968 ft | 291 kts | 19° |
| 2026-04-15 19:44 | -29.00219 | -50.75333 | 16218 ft | 290 kts | 19° |
| 2026-04-15 19:44 | -28.98400 | -50.74398 | 16465 ft | 284 kts | 19° |
| 2026-04-15 19:44 | -28.96609 | -50.73482 | 16713 ft | 281 kts | 19° |
| 2026-04-15 19:45 | -28.94830 | -50.72583 | 16870 ft | 281 kts | 19° |
| 2026-04-15 19:45 | -28.93034 | -50.71690 | 16971 ft | 283 kts | 18° |
| 2026-04-15 19:45 | -28.91222 | -50.70800 | 17000 ft | 286 kts | 18° |
| 2026-04-15 19:45 | -28.89386 | -50.69908 | 17001 ft | 288 kts | 18° |
| 2026-04-15 19:46 | -28.87551 | -50.69023 | 17000 ft | 286 kts | 18° |
| 2026-04-15 19:46 | -28.85727 | -50.68146 | 17000 ft | 284 kts | 18° |
| 2026-04-15 19:46 | -28.83912 | -50.67278 | 17000 ft | 283 kts | 18° |
| 2026-04-15 19:46 | -28.82101 | -50.66415 | 17000 ft | 283 kts | 18° |
| 2026-04-15 19:47 | -28.80288 | -50.65554 | 17000 ft | 283 kts | 18° |
| 2026-04-15 19:47 | -28.78475 | -50.64695 | 17000 ft | 283 kts | 18° |
| 2026-04-15 19:47 | -28.76659 | -50.63836 | 17000 ft | 283 kts | 18° |
| 2026-04-15 19:47 | -28.74843 | -50.62979 | 17000 ft | 283 kts | 18° |
| 2026-04-15 19:48 | -28.73021 | -50.62119 | 17000 ft | 283 kts | 18° |
| 2026-04-15 19:48 | -28.71207 | -50.61265 | 17000 ft | 283 kts | 18° |
| 2026-04-15 19:48 | -28.69391 | -50.60409 | 17000 ft | 283 kts | 18° |
| 2026-04-15 19:48 | -28.67578 | -50.59556 | 17000 ft | 283 kts | 18° |
| 2026-04-15 19:49 | -28.65766 | -50.58703 | 17000 ft | 282 kts | 18° |
| 2026-04-15 19:49 | -28.63955 | -50.57851 | 17000 ft | 282 kts | 18° |
| 2026-04-15 19:49 | -28.62145 | -50.57000 | 17000 ft | 282 kts | 18° |
| 2026-04-15 19:49 | -28.60334 | -50.56149 | 17000 ft | 282 kts | 18° |
| 2026-04-15 19:50 | -28.58526 | -50.55300 | 17000 ft | 282 kts | 18° |
| 2026-04-15 19:50 | -28.56718 | -50.54451 | 17000 ft | 282 kts | 18° |
| 2026-04-15 19:50 | -28.54909 | -50.53602 | 17000 ft | 282 kts | 18° |
| 2026-04-15 19:50 | -28.53098 | -50.52752 | 17000 ft | 282 kts | 18° |
| 2026-04-15 19:51 | -28.51289 | -50.51904 | 17000 ft | 282 kts | 17° |
| 2026-04-15 19:51 | -28.49473 | -50.51053 | 17000 ft | 283 kts | 17° |
| 2026-04-15 19:51 | -28.47659 | -50.50203 | 17000 ft | 283 kts | 17° |
| 2026-04-15 19:51 | -28.45844 | -50.49353 | 17000 ft | 283 kts | 17° |
| 2026-04-15 19:52 | -28.44025 | -50.48501 | 17000 ft | 283 kts | 17° |
| 2026-04-15 19:52 | -28.42205 | -50.47649 | 17000 ft | 283 kts | 17° |
| 2026-04-15 19:52 | -28.40385 | -50.46798 | 17000 ft | 284 kts | 17° |
| 2026-04-15 19:52 | -28.38564 | -50.45946 | 17000 ft | 284 kts | 17° |
| 2026-04-15 19:53 | -28.36744 | -50.45095 | 17000 ft | 284 kts | 17° |
| 2026-04-15 19:53 | -28.34922 | -50.44243 | 17000 ft | 284 kts | 17° |
| 2026-04-15 19:53 | -28.33100 | -50.43392 | 17000 ft | 284 kts | 17° |
| 2026-04-15 19:53 | -28.31279 | -50.42541 | 17000 ft | 284 kts | 17° |
| 2026-04-15 19:54 | -28.29458 | -50.41691 | 17000 ft | 284 kts | 17° |
| 2026-04-15 19:54 | -28.27638 | -50.40841 | 17000 ft | 283 kts | 17° |
| 2026-04-15 19:54 | -28.25818 | -50.39992 | 17000 ft | 283 kts | 17° |
| 2026-04-15 19:54 | -28.23998 | -50.39144 | 17000 ft | 283 kts | 17° |
| 2026-04-15 19:55 | -28.22179 | -50.38296 | 17000 ft | 283 kts | 17° |
| 2026-04-15 19:55 | -28.20362 | -50.37449 | 17000 ft | 283 kts | 17° |
| 2026-04-15 19:55 | -28.18544 | -50.36602 | 17000 ft | 283 kts | 17° |
| 2026-04-15 19:55 | -28.16727 | -50.35755 | 17000 ft | 283 kts | 17° |
| 2026-04-15 19:56 | -28.14907 | -50.34908 | 17000 ft | 283 kts | 17° |
| 2026-04-15 19:56 | -28.13088 | -50.34062 | 17000 ft | 284 kts | 17° |
| 2026-04-15 19:56 | -28.11267 | -50.33215 | 17000 ft | 283 kts | 17° |
| 2026-04-15 19:56 | -28.09447 | -50.32369 | 17000 ft | 283 kts | 17° |
| 2026-04-15 19:57 | -28.07630 | -50.31524 | 17000 ft | 283 kts | 17° |
| 2026-04-15 19:57 | -28.05815 | -50.30681 | 17000 ft | 282 kts | 17° |
| 2026-04-15 19:57 | -28.04002 | -50.29839 | 17000 ft | 282 kts | 17° |
| 2026-04-15 19:57 | -28.02191 | -50.28998 | 17000 ft | 282 kts | 17° |
| 2026-04-15 19:58 | -28.00381 | -50.28157 | 17000 ft | 282 kts | 17° |
| 2026-04-15 19:58 | -27.98572 | -50.27318 | 17000 ft | 281 kts | 17° |
| 2026-04-15 19:58 | -27.96765 | -50.26480 | 17000 ft | 281 kts | 17° |
| 2026-04-15 19:58 | -27.94960 | -50.25643 | 17000 ft | 281 kts | 17° |
| 2026-04-15 19:59 | -27.93155 | -50.24806 | 17000 ft | 281 kts | 17° |
| 2026-04-15 19:59 | -27.91346 | -50.23968 | 17000 ft | 282 kts | 17° |
| 2026-04-15 19:59 | -27.89534 | -50.23129 | 17000 ft | 282 kts | 17° |
| 2026-04-15 19:59 | -27.87718 | -50.22288 | 17000 ft | 283 kts | 17° |
| 2026-04-15 20:00 | -27.85899 | -50.21447 | 17000 ft | 283 kts | 17° |
| 2026-04-15 20:00 | -27.84082 | -50.20607 | 17000 ft | 283 kts | 17° |
| 2026-04-15 20:00 | -27.82265 | -50.19767 | 17000 ft | 283 kts | 17° |
| 2026-04-15 20:00 | -27.80450 | -50.18927 | 17000 ft | 283 kts | 17° |
| 2026-04-15 20:01 | -27.78632 | -50.18088 | 17000 ft | 283 kts | 17° |
| 2026-04-15 20:01 | -27.76818 | -50.17250 | 17000 ft | 282 kts | 17° |
| 2026-04-15 20:01 | -27.75002 | -50.16411 | 17000 ft | 282 kts | 17° |
| 2026-04-15 20:01 | -27.73187 | -50.15572 | 17000 ft | 283 kts | 17° |
| 2026-04-15 20:02 | -27.71365 | -50.14731 | 17000 ft | 284 kts | 17° |
| 2026-04-15 20:02 | -27.69537 | -50.13888 | 17000 ft | 285 kts | 17° |
| 2026-04-15 20:02 | -27.67704 | -50.13044 | 17000 ft | 286 kts | 17° |
| 2026-04-15 20:02 | -27.65862 | -50.12195 | 17001 ft | 286 kts | 17° |
| 2026-04-15 20:03 | -27.64025 | -50.11349 | 17000 ft | 286 kts | 17° |
| 2026-04-15 20:03 | -27.62190 | -50.10504 | 17000 ft | 285 kts | 17° |
| 2026-04-15 20:03 | -27.60359 | -50.09660 | 17000 ft | 285 kts | 17° |
| 2026-04-15 20:03 | -27.58526 | -50.08816 | 17000 ft | 286 kts | 17° |
| 2026-04-15 20:04 | -27.56689 | -50.07971 | 17000 ft | 286 kts | 17° |
| 2026-04-15 20:04 | -27.54847 | -50.07124 | 17000 ft | 287 kts | 17° |
| 2026-04-15 20:04 | -27.53001 | -50.06275 | 17000 ft | 287 kts | 17° |
| 2026-04-15 20:04 | -27.51151 | -50.05425 | 17000 ft | 288 kts | 17° |
| 2026-04-15 20:05 | -27.49299 | -50.04575 | 17000 ft | 288 kts | 17° |
| 2026-04-15 20:05 | -27.47450 | -50.03725 | 17000 ft | 287 kts | 17° |
| 2026-04-15 20:05 | -27.45606 | -50.02879 | 17000 ft | 286 kts | 17° |
| 2026-04-15 20:05 | -27.43768 | -50.02034 | 17000 ft | 286 kts | 17° |
| 2026-04-15 20:06 | -27.41936 | -50.01193 | 17000 ft | 285 kts | 17° |
| 2026-04-15 20:06 | -27.40104 | -50.00353 | 17000 ft | 285 kts | 17° |
| 2026-04-15 20:06 | -27.38274 | -49.99514 | 17000 ft | 284 kts | 17° |
| 2026-04-15 20:06 | -27.36447 | -49.98676 | 17000 ft | 284 kts | 17° |
| 2026-04-15 20:07 | -27.34622 | -49.97840 | 17000 ft | 284 kts | 17° |
| 2026-04-15 20:07 | -27.32800 | -49.97006 | 17000 ft | 284 kts | 17° |
| 2026-04-15 20:07 | -27.30976 | -49.96171 | 17000 ft | 284 kts | 17° |
| 2026-04-15 20:07 | -27.29153 | -49.95336 | 17000 ft | 283 kts | 17° |
| 2026-04-15 20:08 | -27.27331 | -49.94503 | 17000 ft | 283 kts | 17° |
| 2026-04-15 20:08 | -27.26839 | -49.94278 | 17000 ft | 283 kts | 17° |
| 2026-04-15 20:08 | -27.25019 | -49.93446 | 17000 ft | 283 kts | 17° |
| 2026-04-15 20:08 | -27.23196 | -49.92612 | 17000 ft | 283 kts | 17° |
| 2026-04-15 20:09 | -27.21372 | -49.91779 | 17000 ft | 284 kts | 17° |
| 2026-04-15 20:09 | -27.19547 | -49.90946 | 17000 ft | 284 kts | 17° |
| 2026-04-15 20:09 | -27.17724 | -49.90113 | 17000 ft | 283 kts | 17° |
| 2026-04-15 20:09 | -27.15899 | -49.89280 | 17000 ft | 283 kts | 17° |
| 2026-04-15 20:10 | -27.14080 | -49.88451 | 17000 ft | 283 kts | 17° |
| 2026-04-15 20:10 | -27.12258 | -49.87619 | 17000 ft | 283 kts | 17° |
| 2026-04-15 20:10 | -27.10440 | -49.86790 | 17000 ft | 283 kts | 17° |
| 2026-04-15 20:10 | -27.08623 | -49.85962 | 17000 ft | 282 kts | 17° |
| 2026-04-15 20:11 | -27.06807 | -49.85134 | 17000 ft | 282 kts | 17° |
| 2026-04-15 20:11 | -27.04990 | -49.84307 | 17000 ft | 282 kts | 17° |
| 2026-04-15 20:11 | -27.03172 | -49.83479 | 17000 ft | 282 kts | 17° |
| 2026-04-15 20:11 | -27.01355 | -49.82652 | 17000 ft | 283 kts | 17° |
| 2026-04-15 20:12 | -26.99536 | -49.81824 | 17000 ft | 283 kts | 17° |
| 2026-04-15 20:12 | -26.97716 | -49.80996 | 17000 ft | 283 kts | 17° |
| 2026-04-15 20:12 | -26.95894 | -49.80168 | 17000 ft | 283 kts | 17° |
| 2026-04-15 20:12 | -26.94073 | -49.79324 | 17013 ft | 286 kts | 18° |
| 2026-04-15 20:13 | -26.92222 | -49.78454 | 16989 ft | 290 kts | 18° |
| 2026-04-15 20:13 | -26.90373 | -49.77608 | 17002 ft | 287 kts | 17° |
| 2026-04-15 20:13 | -26.88522 | -49.76770 | 17000 ft | 286 kts | 17° |
| 2026-04-15 20:13 | -26.86677 | -49.75940 | 17000 ft | 286 kts | 17° |
| 2026-04-15 20:14 | -26.84831 | -49.75111 | 17000 ft | 287 kts | 17° |
| 2026-04-15 20:14 | -26.82983 | -49.74281 | 17000 ft | 287 kts | 17° |
| 2026-04-15 20:14 | -26.81134 | -49.73449 | 17000 ft | 287 kts | 17° |
| 2026-04-15 20:14 | -26.79285 | -49.72617 | 17000 ft | 287 kts | 17° |
| 2026-04-15 20:15 | -26.77436 | -49.71783 | 17000 ft | 286 kts | 17° |
| 2026-04-15 20:15 | -26.75595 | -49.70952 | 17000 ft | 286 kts | 17° |
| 2026-04-15 20:15 | -26.73760 | -49.70123 | 17000 ft | 285 kts | 17° |
| 2026-04-15 20:15 | -26.71922 | -49.69292 | 17000 ft | 285 kts | 17° |
| 2026-04-15 20:16 | -26.70083 | -49.68461 | 17000 ft | 285 kts | 17° |
| 2026-04-15 20:16 | -26.68249 | -49.67632 | 17000 ft | 285 kts | 17° |
| 2026-04-15 20:16 | -26.66418 | -49.66804 | 17000 ft | 284 kts | 17° |
| 2026-04-15 20:16 | -26.64590 | -49.65978 | 17000 ft | 284 kts | 17° |
| 2026-04-15 20:17 | -26.62764 | -49.65153 | 17000 ft | 284 kts | 17° |
| 2026-04-15 20:17 | -26.60938 | -49.64329 | 17000 ft | 284 kts | 17° |
| 2026-04-15 20:17 | -26.59113 | -49.63504 | 17000 ft | 284 kts | 17° |
| 2026-04-15 20:17 | -26.57288 | -49.62681 | 17000 ft | 284 kts | 17° |
| 2026-04-15 20:18 | -26.55463 | -49.61858 | 17000 ft | 284 kts | 17° |
| 2026-04-15 20:18 | -26.53635 | -49.61033 | 17000 ft | 284 kts | 17° |
| 2026-04-15 20:18 | -26.51810 | -49.60210 | 17000 ft | 284 kts | 17° |
| 2026-04-15 20:18 | -26.49981 | -49.59386 | 17000 ft | 284 kts | 17° |
| 2026-04-15 20:19 | -26.48155 | -49.58563 | 17000 ft | 284 kts | 17° |
| 2026-04-15 20:19 | -26.46326 | -49.57739 | 17000 ft | 284 kts | 17° |
| 2026-04-15 20:19 | -26.44498 | -49.56916 | 17000 ft | 284 kts | 17° |
| 2026-04-15 20:19 | -26.42667 | -49.56092 | 17000 ft | 284 kts | 17° |
| 2026-04-15 20:20 | -26.40839 | -49.55269 | 17000 ft | 284 kts | 17° |
| 2026-04-15 20:20 | -26.39005 | -49.54444 | 17000 ft | 285 kts | 17° |
| 2026-04-15 20:20 | -26.37171 | -49.53620 | 17000 ft | 285 kts | 17° |
| 2026-04-15 20:20 | -26.35333 | -49.52794 | 17000 ft | 285 kts | 17° |
| 2026-04-15 20:21 | -26.33498 | -49.51969 | 17000 ft | 285 kts | 17° |
| 2026-04-15 20:21 | -26.31664 | -49.51145 | 17000 ft | 285 kts | 17° |
| 2026-04-15 20:21 | -26.29832 | -49.50323 | 17000 ft | 284 kts | 17° |
| 2026-04-15 20:21 | -26.28008 | -49.49503 | 17000 ft | 283 kts | 17° |
| 2026-04-15 20:22 | -26.26185 | -49.48685 | 17000 ft | 282 kts | 17° |
| 2026-04-15 20:22 | -26.24369 | -49.47870 | 17000 ft | 281 kts | 17° |
| 2026-04-15 20:22 | -26.22563 | -49.47059 | 17000 ft | 281 kts | 17° |
| 2026-04-15 20:22 | -26.20750 | -49.46245 | 17000 ft | 281 kts | 17° |
| 2026-04-15 20:23 | -26.18937 | -49.45431 | 17000 ft | 282 kts | 18° |
| 2026-04-15 20:23 | -26.17190 | -49.44400 | 17000 ft | 287 kts | 27° |
| 2026-04-15 20:23 | -26.15553 | -49.43117 | 17002 ft | 290 kts | 32° |
| 2026-04-15 20:23 | -26.13974 | -49.41724 | 17001 ft | 291 kts | 34° |
| 2026-04-15 20:24 | -26.12421 | -49.40290 | 17001 ft | 290 kts | 35° |
| 2026-04-15 20:24 | -26.09332 | -49.37421 | 17000 ft | 289 kts | 34° |
| 2026-04-15 20:24 | -26.07786 | -49.36009 | 16997 ft | 284 kts | 34° |
| 2026-04-15 20:25 | -26.06264 | -49.34635 | 16718 ft | 281 kts | 34° |
| 2026-04-15 20:25 | -26.04753 | -49.33291 | 16464 ft | 277 kts | 33° |
| 2026-04-15 20:25 | -26.03249 | -49.31969 | 16213 ft | 275 kts | 33° |
| 2026-04-15 20:25 | -26.01751 | -49.30665 | 15963 ft | 273 kts | 33° |
| 2026-04-15 20:26 | -26.00255 | -49.29372 | 15713 ft | 272 kts | 32° |
| 2026-04-15 20:26 | -25.98762 | -49.28089 | 15463 ft | 271 kts | 32° |
| 2026-04-15 20:26 | -25.97271 | -49.26812 | 15213 ft | 271 kts | 32° |
| 2026-04-15 20:26 | -25.95779 | -49.25540 | 14963 ft | 271 kts | 32° |
| 2026-04-15 20:27 | -25.94287 | -49.24269 | 14714 ft | 271 kts | 32° |
| 2026-04-15 20:27 | -25.92794 | -49.22999 | 14464 ft | 271 kts | 32° |
| 2026-04-15 20:27 | -25.91302 | -49.21732 | 14214 ft | 270 kts | 32° |
| 2026-04-15 20:27 | -25.89814 | -49.20468 | 13965 ft | 270 kts | 32° |
| 2026-04-15 20:28 | -25.88329 | -49.19207 | 13715 ft | 269 kts | 32° |
| 2026-04-15 20:28 | -25.86847 | -49.17949 | 13465 ft | 268 kts | 32° |
| 2026-04-15 20:28 | -25.85372 | -49.16697 | 13215 ft | 267 kts | 32° |
| 2026-04-15 20:28 | -25.83903 | -49.15451 | 12965 ft | 266 kts | 32° |
| 2026-04-15 20:29 | -25.82439 | -49.14210 | 12715 ft | 265 kts | 32° |
| 2026-04-15 20:29 | -25.80985 | -49.12977 | 12466 ft | 263 kts | 32° |
| 2026-04-15 20:29 | -25.79536 | -49.11749 | 12216 ft | 262 kts | 32° |
| 2026-04-15 20:29 | -25.78093 | -49.10527 | 11966 ft | 261 kts | 32° |
| 2026-04-15 20:30 | -25.76660 | -49.09314 | 11716 ft | 259 kts | 32° |
| 2026-04-15 20:30 | -25.75232 | -49.08105 | 11466 ft | 258 kts | 32° |
| 2026-04-15 20:30 | -25.73812 | -49.06904 | 11217 ft | 257 kts | 32° |
| 2026-04-15 20:30 | -25.72398 | -49.05707 | 10967 ft | 256 kts | 32° |
| 2026-04-15 20:31 | -25.70989 | -49.04516 | 10717 ft | 254 kts | 32° |
| 2026-04-15 20:31 | -25.69588 | -49.03332 | 10467 ft | 253 kts | 32° |
| 2026-04-15 20:31 | -25.68191 | -49.02152 | 10217 ft | 252 kts | 32° |
| 2026-04-15 20:31 | -25.66801 | -49.00978 | 9967 ft | 251 kts | 31° |
| 2026-04-15 20:32 | -25.65415 | -48.99808 | 9717 ft | 250 kts | 31° |
| 2026-04-15 20:32 | -25.64036 | -48.98644 | 9468 ft | 249 kts | 31° |
| 2026-04-15 20:32 | -25.62663 | -48.97485 | 9218 ft | 248 kts | 31° |
| 2026-04-15 20:32 | -25.61294 | -48.96330 | 8968 ft | 247 kts | 31° |
| 2026-04-15 20:33 | -25.59929 | -48.95179 | 8718 ft | 247 kts | 31° |
| 2026-04-15 20:33 | -25.58566 | -48.94030 | 8468 ft | 247 kts | 31° |
| 2026-04-15 20:33 | -25.57145 | -48.93014 | 8220 ft | 240 kts | 18° |
| 2026-04-15 20:33 | -25.55573 | -48.92692 | 8052 ft | 225 kts | 353° |
| 2026-04-15 20:34 | -25.54114 | -48.93140 | 7881 ft | 215 kts | 329° |
| 2026-04-15 20:34 | -25.52868 | -48.94023 | 7723 ft | 212 kts | 322° |
| 2026-04-15 20:34 | -25.51694 | -48.94993 | 7584 ft | 210 kts | 320° |
| 2026-04-15 20:34 | -25.50559 | -48.95976 | 7517 ft | 205 kts | 319° |
| 2026-04-15 20:35 | -25.49455 | -48.96937 | 7501 ft | 200 kts | 319° |
| 2026-04-15 20:35 | -25.48374 | -48.97867 | 7498 ft | 195 kts | 319° |
| 2026-04-15 20:35 | -25.47307 | -48.98775 | 7498 ft | 192 kts | 319° |
| 2026-04-15 20:35 | -25.46286 | -48.99638 | 7499 ft | 190 kts | 319° |
| 2026-04-15 20:36 | -25.45590 | -49.00223 | 7499 ft | 189 kts | 320° |
| 2026-04-15 20:36 | -25.44547 | -49.01096 | 7500 ft | 188 kts | 320° |
| 2026-04-15 20:37 | -25.43484 | -49.01981 | 7503 ft | 195 kts | 320° |
| 2026-04-15 20:37 | -25.42380 | -49.02898 | 7503 ft | 202 kts | 320° |
| 2026-04-15 20:37 | -25.41246 | -49.03836 | 7502 ft | 207 kts | 321° |
| 2026-04-15 20:37 | -25.40086 | -49.04792 | 7501 ft | 210 kts | 321° |
| 2026-04-15 20:38 | -25.36612 | -49.07648 | 7500 ft | 213 kts | 321° |
| 2026-04-15 20:38 | -25.35423 | -49.08624 | 7500 ft | 213 kts | 321° |
| 2026-04-15 20:39 | -25.34235 | -49.09600 | 7500 ft | 214 kts | 321° |
| 2026-04-15 20:39 | -25.33045 | -49.10578 | 7500 ft | 214 kts | 321° |
| 2026-04-15 20:39 | -25.31854 | -49.11557 | 7500 ft | 214 kts | 321° |
| 2026-04-15 20:39 | -25.30663 | -49.12536 | 7500 ft | 214 kts | 321° |
| 2026-04-15 20:40 | -25.29471 | -49.13516 | 7500 ft | 214 kts | 321° |
| 2026-04-15 20:40 | -25.28281 | -49.14497 | 7500 ft | 214 kts | 320° |
| 2026-04-15 20:40 | -25.27326 | -49.15722 | 7494 ft | 211 kts | 298° |
| 2026-04-15 20:40 | -25.26985 | -49.17290 | 7424 ft | 217 kts | 275° |
| 2026-04-15 20:41 | -25.27306 | -49.18973 | 7051 ft | 235 kts | 251° |
| 2026-04-15 20:41 | -25.28246 | -49.20505 | 6693 ft | 247 kts | 237° |
| 2026-04-15 20:41 | -25.29297 | -49.22021 | 6319 ft | 251 kts | 238° |
| 2026-04-15 20:41 | -25.30334 | -49.23575 | 5946 ft | 250 kts | 239° |
| 2026-04-15 20:42 | -25.31311 | -49.25088 | 5570 ft | 236 kts | 237° |
| 2026-04-15 20:42 | -25.32261 | -49.26527 | 5191 ft | 229 kts | 233° |
| 2026-04-15 20:42 | -25.33492 | -49.27597 | 4805 ft | 226 kts | 209° |
| 2026-04-15 20:42 | -25.34952 | -49.28143 | 4607 ft | 217 kts | 194° |
| 2026-04-15 20:43 | -25.36417 | -49.28072 | 4516 ft | 208 kts | 166° |
| 2026-04-15 20:43 | -25.37674 | -49.27373 | 4509 ft | 199 kts | 148° |
| 2026-04-15 20:43 | -25.38639 | -49.26329 | 4503 ft | 191 kts | 128° |
| 2026-04-15 20:43 | -25.39393 | -49.25137 | 3740 ft | 185 kts | 122° |
| 2026-04-15 20:44 | -25.39846 | -49.24087 | 3261 ft | 132 kts | 108° |
| 2026-04-15 20:44 | -25.40233 | -49.23286 | 3063 ft | 70 kts | 162° |
| 2026-04-15 20:44 | -25.40426 | -49.23143 | 3063 ft | 7 kts | 120° |
| 2026-04-15 20:44 | -25.40440 | -49.23103 | 3063 ft | 0 kts | 81° |